NCAR-RAP Real-Time Weather Data

Output produced by METARs form (06 May 2021  16:00 UTC)
found at http://weather.rap.ucar.edu/surface/
 
KBDU 061535Z AUTO 00000KT 10SM CLR 10/03 A3035 RMK AO2
KBDU 061515Z AUTO 00000KT 10SM CLR 10/03 A3036 RMK AO2
KBDU 061455Z AUTO 00000KT 10SM CLR 08/03 A3037 RMK AO2
KBDU 061435Z AUTO 00000KT 10SM CLR 08/03 A3037 RMK AO2
KBDU 061415Z AUTO 00000KT 10SM CLR 08/03 A3037 RMK AO2
KBDU 061355Z AUTO 00000KT 10SM CLR 07/03 A3038 RMK AO2
KBDU 061335Z AUTO 00000KT 10SM CLR 07/02 A3038 RMK AO2
KBDU 061315Z AUTO 00000KT 10SM CLR 06/02 A3038 RMK AO2
KBDU 061255Z AUTO 00000KT 10SM CLR 06/02 A3039 RMK AO2
KBDU 061235Z AUTO 27003KT 10SM CLR 04/02 A3038 RMK AO2
KBDU 061215Z AUTO 00000KT 10SM CLR 05/02 A3038 RMK AO2
KBDU 061155Z AUTO 33003KT 10SM CLR 04/02 A3038 RMK AO2
KBDU 061135Z AUTO 30003KT 10SM CLR 04/02 A3038 RMK AO2
KBDU 061115Z AUTO 29003KT 10SM CLR 05/02 A3037 RMK AO2
KBDU 061055Z AUTO 31003KT 10SM CLR 05/02 A3037 RMK AO2
KBDU 061035Z AUTO 29003KT 10SM CLR 05/02 A3037 RMK AO2
KBDU 061015Z AUTO 30005KT 10SM CLR 05/02 A3037 RMK AO2
KBDU 060955Z AUTO 35005KT 10SM CLR 05/02 A3037 RMK AO2
KBDU 060935Z AUTO 36005KT 10SM CLR 06/02 A3036 RMK AO2
KBDU 060915Z AUTO 00000KT 10SM CLR 06/02 A3035 RMK AO2
KBDU 060855Z AUTO 00000KT 10SM CLR 06/02 A3034 RMK AO2
KBDU 060835Z AUTO 28003KT 10SM CLR 06/03 A3034 RMK AO2
KBDU 060815Z AUTO 27003KT 10SM CLR 06/02 A3033 RMK AO2
KBDU 060755Z AUTO 22003KT 10SM CLR 07/02 A3033 RMK AO2
KBDU 060735Z AUTO 23003KT 10SM CLR 07/03 A3033 RMK AO2
KBDU 060715Z AUTO 00000KT 10SM CLR 06/03 A3033 RMK AO2
KBDU 060655Z AUTO 27003KT 10SM CLR 06/04 A3033 RMK AO2
KBDU 060635Z AUTO 02003KT 10SM CLR 06/05 A3032 RMK AO2
KBDU 060615Z AUTO 04004KT 10SM CLR 06/03 A3031 RMK AO2
KBDU 060555Z AUTO 00000KT 10SM CLR 08/01 A3030 RMK AO2
KBDU 060535Z AUTO 00000KT 10SM CLR 08/02 A3030 RMK AO2
KBDU 060515Z AUTO 21003KT 10SM CLR 08/03 A3030 RMK AO2
KBDU 060455Z AUTO 00000KT 10SM CLR 08/03 A3030 RMK AO2
KBDU 060435Z AUTO 00000KT 10SM CLR 09/03 A3030 RMK AO2
KBDU 060415Z AUTO 22003KT 10SM CLR 08/03 A3030 RMK AO2
KBDU 060355Z AUTO 00000KT 10SM CLR 09/03 A3029 RMK AO2
KBDU 060335Z AUTO 22003KT 10SM CLR 10/03 A3029 RMK AO2
KBDU 060315Z AUTO 23003KT 10SM CLR 10/03 A3028 RMK AO2
KBDU 060255Z AUTO 23004KT 10SM CLR 11/03 A3027 RMK AO2
KBDU 060235Z AUTO 00000KT 10SM CLR 11/03 A3027 RMK AO2
KBDU 060215Z AUTO 00000KT 10SM CLR 12/03 A3025 RMK AO2